Latest Weather Observations for Lord Howe Island Windy Point

IDN60801

Issued at 9:05 am EDT Sunday 26 October 2014 (issued every 30 minutes, with the page automatically refreshed every 10 minutes)

About weather observations | Map of weather stations | Latest weather observations for NSW | Other Formats
Station Details ID: 200715 Name: LORD HOWE ISLAND WINDY POINT Lat: -31.54 Lon: 159.07 Height: 4.0 m
Data from the previous 72 hours. | See also: Recent months for locations in New South Wales
Date/Time
EDT
Temp
°C
App
Temp
°C
Dew
Point
Rel
Hum
%
Delta-T
°C
Wind Press
QNH
hPa
Press
MSL
hPa
Rain
since 9 am
mm
Dir
 
Spd
km/h
Gust
km/h
Spd
kts
Gust
kts
26/09:00am - - - - - NW 13 30 7 16 - - -
26/08:30am - - - - - N 9 20 5 11 - - -
26/08:00am - - - - - N 11 32 6 17 - - -
26/07:30am - - - - - WNW 9 19 5 10 - - -
26/07:00am - - - - - NNW 9 17 5 9 - - -
26/06:30am - - - - - N 7 15 4 8 - - -
26/06:00am - - - - - NNE 9 17 5 9 - - -
26/05:30am - - - - - N 7 13 4 7 - - -
26/05:00am - - - - - W 4 15 2 8 - - -
26/04:30am - - - - - NW 6 15 3 8 - - -
26/04:00am - - - - - NW 7 13 4 7 - - -
26/03:30am - - - - - ENE 7 19 4 10 - - -
26/03:00am - - - - - NNE 6 11 3 6 - - -
26/02:30am - - - - - NE 6 13 3 7 - - -
26/02:00am - - - - - NNE 7 15 4 8 - - -
26/01:30am - - - - - E 2 9 1 5 - - -
26/01:00am - - - - - NNE 11 17 6 9 - - -
26/12:30am - - - - - NNE 9 13 5 7 - - -
26/12:00am - - - - - NNE 7 11 4 6 - - -
 
Date/Time
EDT
Temp
°C
App
Temp
°C
Dew
Point
Rel
Hum
%
Delta-T
°C
Wind Press
QNH
hPa
Press
MSL
hPa
Rain
since 9 am
mm
Dir
 
Spd
km/h
Gust
km/h
Spd
kts
Gust
kts
25/11:30pm - - - - - NNE 11 15 6 8 - - -
25/11:00pm - - - - - NNE 9 15 5 8 - - -
25/10:30pm - - - - - NE 9 17 5 9 - - -
25/10:00pm - - - - - NE 7 13 4 7 - - -
25/09:30pm - - - - - N 4 15 2 8 - - -
25/09:00pm - - - - - NE 7 13 4 7 - - -
25/08:30pm - - - - - NNE 2 9 1 5 - - -
25/08:00pm - - - - - NW 6 13 3 7 - - -
25/07:30pm - - - - - WNW 7 17 4 9 - - -
25/07:00pm - - - - - NW 9 17 5 9 - - -
25/06:30pm - - - - - NE 4 15 2 8 - - -
25/06:00pm - - - - - NE 4 9 2 5 - - -
25/05:30pm - - - - - NNE 9 15 5 8 - - -
25/05:00pm - - - - - NNE 11 17 6 9 - - -
25/04:30pm - - - - - NNE 11 19 6 10 - - -
25/04:00pm - - - - - NNE 9 17 5 9 - - -
25/03:30pm - - - - - NNE 11 19 6 10 - - -
25/03:00pm - - - - - NNE 11 22 6 12 - - -
25/02:30pm - - - - - NNE 11 17 6 9 - - -
25/02:00pm - - - - - NNE 11 20 6 11 - - -
25/01:30pm - - - - - N 11 20 6 11 - - -
25/01:00pm - - - - - N 15 22 8 12 - - -
25/12:30pm - - - - - N 17 24 9 13 - - -
25/12:00pm - - - - - ENE 17 24 9 13 - - -
25/11:30am - - - - - E 17 30 9 16 - - -
25/11:00am - - - - - NE 13 22 7 12 - - -
25/10:30am - - - - - NNE 17 26 9 14 - - -
25/10:00am - - - - - N 15 24 8 13 - - -
25/09:30am - - - - - N 13 20 7 11 - - -
25/09:00am - - - - - NNW 9 19 5 10 - - -
25/08:30am - - - - - NNW 9 15 5 8 - - -
25/08:00am - - - - - N 6 9 3 5 - - -
25/07:30am - - - - - ENE 6 7 3 4 - - -
25/07:00am - - - - - NNE 9 11 5 6 - - -
25/06:30am - - - - - NNE 4 6 2 3 - - -
25/06:00am - - - - - NE 9 11 5 6 - - -
25/05:30am - - - - - NE 7 11 4 6 - - -
25/05:00am - - - - - NE 7 11 4 6 - - -
25/04:30am - - - - - NE 9 13 5 7 - - -
25/04:00am - - - - - NNE 9 13 5 7 - - -
25/03:30am - - - - - NE 7 13 4 7 - - -
25/03:00am - - - - - NE 9 13 5 7 - - -
25/02:30am - - - - - NNE 9 17 5 9 - - -
25/02:00am - - - - - NE 7 13 4 7 - - -
25/01:30am - - - - - ENE 9 13 5 7 - - -
25/01:00am - - - - - NE 9 13 5 7 - - -
25/12:30am - - - - - NNE 7 11 4 6 - - -
25/12:00am - - - - - NE 7 11 4 6 - - -
 
Date/Time
EDT
Temp
°C
App
Temp
°C
Dew
Point
Rel
Hum
%
Delta-T
°C
Wind Press
QNH
hPa
Press
MSL
hPa
Rain
since 9 am
mm
Dir
 
Spd
km/h
Gust
km/h
Spd
kts
Gust
kts
24/11:30pm - - - - - NE 9 11 5 6 - - -
24/11:00pm - - - - - NE 7 13 4 7 - - -
24/10:30pm - - - - - NE 6 7 3 4 - - -
24/10:00pm - - - - - CALM 0 0 0 0 - - -
24/09:30pm - - - - - CALM 0 0 0 0 - - -
24/09:00pm - - - - - E 4 7 2 4 - - -
24/08:30pm - - - - - ENE 6 7 3 4 - - -
24/08:00pm - - - - - ENE 7 9 4 5 - - -
24/07:30pm - - - - - NE 9 11 5 6 - - -
24/07:00pm - - - - - E 2 6 1 3 - - -
24/06:30pm - - - - - E 9 13 5 7 - - -
24/06:00pm - - - - - ENE 11 13 6 7 - - -
24/05:30pm - - - - - ENE 11 15 6 8 - - -
24/05:00pm - - - - - E 13 15 7 8 - - -
24/04:30pm - - - - - E 13 17 7 9 - - -
24/04:00pm - - - - - E 15 19 8 10 - - -
24/03:30pm - - - - - E 15 20 8 11 - - -
24/03:00pm - - - - - E 15 19 8 10 - - -
24/02:30pm - - - - - E 13 19 7 10 - - -
24/02:00pm - - - - - ENE 13 19 7 10 - - -
24/01:30pm - - - - - E 15 20 8 11 - - -
24/01:00pm - - - - - E 17 22 9 12 - - -
24/12:30pm - - - - - E 17 20 9 11 - - -
24/12:00pm - - - - - E 17 22 9 12 - - -
24/11:30am - - - - - E 17 22 9 12 - - -
24/11:00am - - - - - E 19 24 10 13 - - -
24/10:30am - - - - - ESE 17 22 9 12 - - -
24/10:00am - - - - - E 17 20 9 11 - - -
24/09:30am - - - - - SSE 9 15 5 8 - - -
24/09:00am - - - - - ESE 15 22 8 12 - - -
24/08:30am - - - - - E 17 20 9 11 - - -
24/08:00am - - - - - ESE 17 20 9 11 - - -
24/07:30am - - - - - ESE 13 15 7 8 - - -
24/07:00am - - - - - E 7 15 4 8 - - -
24/06:30am - - - - - CALM 0 0 0 0 - - -
24/06:00am - - - - - CALM 0 0 0 0 - - -
24/05:30am - - - - - CALM 0 0 0 0 - - -
24/05:00am - - - - - CALM 0 0 0 0 - - -
24/04:30am - - - - - CALM 0 0 0 0 - - -
24/04:00am - - - - - CALM 0 0 0 0 - - -
24/03:30am - - - - - CALM 0 0 0 0 - - -
24/03:00am - - - - - CALM 0 0 0 0 - - -
24/02:30am - - - - - CALM 0 0 0 0 - - -
24/02:00am - - - - - CALM 0 0 0 0 - - -
24/01:30am - - - - - CALM 0 0 0 0 - - -
24/01:00am - - - - - CALM 0 0 0 0 - - -
24/12:30am - - - - - ENE 2 6 1 3 - - -
24/12:00am - - - - - CALM 0 0 0 0 - - -
 
Date/Time
EDT
Temp
°C
App
Temp
°C
Dew
Point
Rel
Hum
%
Delta-T
°C
Wind Press
QNH
hPa
Press
MSL
hPa
Rain
since 9 am
mm
Dir
 
Spd
km/h
Gust
km/h
Spd
kts
Gust
kts
23/11:30pm - - - - - CALM 0 0 0 0 - - -
23/11:00pm - - - - - ENE 2 7 1 4 - - -
23/10:30pm - - - - - CALM 0 7 0 4 - - -
23/10:00pm - - - - - ESE 15 19 8 10 - - -
23/09:30pm - - - - - ESE 9 15 5 8 - - -
23/09:00pm - - - - - ESE 6 11 3 6 - - -
23/08:30pm - - - - - ESE 7 11 4 6 - - -
23/08:00pm - - - - - ESE 9 13 5 7 - - -
23/07:30pm - - - - - ESE 11 15 6 8 - - -
23/07:00pm - - - - - ESE 11 17 6 9 - - -
23/06:30pm - - - - - ESE 17 20 9 11 - - -
23/06:00pm - - - - - ESE 17 24 9 13 - - -
23/05:30pm - - - - - E 20 30 11 16 - - -
23/05:00pm - - - - - E 22 26 12 14 - - -
23/04:30pm - - - - - E 20 28 11 15 - - -
23/04:00pm - - - - - SSW 7 11 4 6 - - -
23/03:30pm - - - - - SW 15 20 8 11 - - -
23/03:00pm - - - - - SSW 13 20 7 11 - - -
23/02:30pm - - - - - SSW 19 24 10 13 - - -
23/02:00pm - - - - - SSW 13 19 7 10 - - -
23/01:30pm - - - - - NNE 13 20 7 11 - - -
23/01:00pm - - - - - SSE 9 15 5 8 - - -
23/12:30pm - - - - - SSW 17 22 9 12 - - -
23/12:00pm - - - - - S 6 13 3 7 - - -
23/11:30am - - - - - E 17 22 9 12 - - -
23/11:00am - - - - - S 7 11 4 6 - - -
23/10:30am - - - - - E 15 20 8 11 - - -
23/10:00am - - - - - E 11 17 6 9 - - -
23/09:30am - - - - - CALM 0 0 0 0 - - -

Other Formats:

Comma delimited format used in spreadsheet applications
http://www.bom.gov.au/fwo/IDN60801/IDN60801.95995.axf

JavaScript Object Notation format (JSON) in row-major order
http://www.bom.gov.au/fwo/IDN60801/IDN60801.95995.json